Time;durP1;ratioP1;P1;durP2;ratioP2;P2;SDS_P1;SDS_P2;PMS_P1;PMS_P2;Temp;Humidity;BMP_temperature;BMP_pressure;BME280_temperature;BME280_humidity;BME280_pressure;Samples;Min_cycle;Max_cycle;Signal;HPM_P1;HPM_P2
2021/10/01 00:02:08;;;;;;;;;0.75;0.75;;;;;15.84;45.62;101775.16;5036961;28;45308;-83
2021/10/01 00:04:34;;;;;;;;;2.00;0.50;;;;;15.83;46.14;101769.81;5036637;28;45303;-82
2021/10/01 00:07:00;;;;;;;;;1.00;0.00;;;;;15.82;46.13;101776.78;5020356;28;45361;-81
2021/10/01 00:09:25;;;;;;;;;1.00;1.00;;;;;15.81;45.97;101776.75;5039307;28;45679;-80
2021/10/01 00:11:54;;;;;;;;;1.00;1.00;;;;;15.79;46.25;101766.22;5035657;28;45382;-80
2021/10/01 00:14:25;;;;;;;;;0.50;0.50;;;;;15.77;46.32;101766.16;5036842;28;45359;-80
2021/10/01 00:16:53;;;;;;;;;0.00;0.00;;;;;15.75;46.17;101756.50;5037243;28;45391;-83
2021/10/01 00:19:19;;;;;;;;;1.00;1.00;;;;;15.73;46.21;101761.66;5039682;28;46485;-82
2021/10/01 00:21:45;;;;;;;;;1.00;1.00;;;;;15.71;45.97;101765.91;5038103;28;45654;-82
2021/10/01 00:24:11;;;;;;;;;1.50;0.00;;;;;15.69;46.25;101767.59;5038010;28;45273;-82
2021/10/01 00:26:39;;;;;;;;;1.00;1.00;;;;;15.66;46.30;101757.03;5038523;28;46036;-81
2021/10/01 00:29:05;;;;;;;;;0.00;0.00;;;;;15.63;46.54;101762.13;5018384;28;46311;-82
2021/10/01 00:31:31;;;;;;;;;1.00;1.00;;;;;15.58;46.81;101771.50;5036582;28;45868;-82
2021/10/01 00:33:57;;;;;;;;;1.00;1.00;;;;;15.55;46.43;101761.81;5036548;28;45337;-80
2021/10/01 00:36:23;;;;;;;;;1.75;1.75;;;;;15.52;46.80;101756.50;5036535;28;45348;-81
2021/10/01 00:38:49;;;;;;;;;1.00;0.75;;;;;15.50;46.79;101754.63;5018263;28;47895;-81
2021/10/01 00:41:14;;;;;;;;;0.00;0.00;;;;;15.48;47.25;101754.56;5036640;28;45423;-83
2021/10/01 00:43:40;;;;;;;;;3.25;1.00;;;;;15.44;47.08;101758.78;5036086;28;45425;-81
2021/10/01 00:46:09;;;;;;;;;0.00;0.00;;;;;15.42;47.38;101767.38;5036568;28;45464;-83
2021/10/01 00:48:34;;;;;;;;;2.25;1.25;;;;;15.39;47.06;101757.69;5036132;28;45939;-81
2021/10/01 00:51:00;;;;;;;;;0.50;0.50;;;;;15.37;47.38;101755.88;5035997;28;45309;-80
2021/10/01 00:53:26;;;;;;;;;1.00;1.00;;;;;15.36;47.72;101751.47;5037905;28;45788;-79
2021/10/01 00:55:52;;;;;;;;;2.00;1.00;;;;;15.35;47.92;101750.59;5038630;28;45189;-80
2021/10/01 00:58:17;;;;;;;;;1.00;1.00;;;;;15.35;47.71;101744.47;5037701;28;45344;-80
2021/10/01 01:03:21;;;;;;;;;1.00;1.00;;;;;15.36;47.95;101738.41;5035607;28;45245;-81
2021/10/01 01:05:52;;;;;;;;;1.50;0.00;;;;;15.38;48.24;101728.94;5036846;28;45289;-82
2021/10/01 01:08:25;;;;;;;;;0.50;0.50;;;;;15.37;48.28;101732.38;5037925;28;45465;-84
2021/10/01 01:10:56;;;;;;;;;1.00;1.00;;;;;15.36;47.89;101723.69;5037380;28;45411;-83
2021/10/01 01:13:39;;;;;;;;;1.00;1.00;;;;;15.36;48.53;101723.69;5037010;28;45186;-82
2021/10/01 01:16:10;;;;;;;;;2.00;1.25;;;;;15.35;48.46;101718.38;5036832;28;45408;-80
2021/10/01 01:18:42;;;;;;;;;2.00;1.75;;;;;15.33;48.81;101726.16;5035700;28;46003;-82
2021/10/01 01:21:16;;;;;;;;;0.00;0.00;;;;;15.32;48.50;101720.06;5036203;28;45264;-83
2021/10/01 01:24:03;;;;;;;;;0.50;0.50;;;;;15.31;48.67;101725.19;5039654;28;45237;-83
2021/10/01 01:26:44;;;;;;;;;1.00;1.00;;;;;15.27;48.59;101712.88;5039754;28;45469;-83
2021/10/01 01:29:18;;;;;;;;;0.75;0.75;;;;;15.26;48.81;101716.31;5039228;28;46373;-81
2021/10/01 01:32:18;;;;;;;;;1.50;1.00;;;;;15.20;49.13;101711.75;5039452;28;45810;-82
2021/10/01 01:34:49;;;;;;;;;1.25;1.00;;;;;15.18;49.39;101705.56;5039621;28;46015;-83
2021/10/01 01:37:22;;;;;;;;;1.00;1.00;;;;;15.18;49.15;101713.38;5021916;28;45371;-82
2021/10/01 01:39:49;;;;;;;;;3.25;1.00;;;;;15.15;49.17;101701.13;5020268;28;47199;-84
2021/10/01 01:42:16;;;;;;;;;1.50;1.00;;;;;15.12;49.49;101700.06;5021161;28;45827;-84
2021/10/01 01:44:43;;;;;;;;;0.00;0.00;;;;;15.09;49.92;101692.16;5039415;28;45242;-83
2021/10/01 01:47:09;;;;;;;;;1.25;1.25;;;;;15.06;50.17;101689.41;5039226;28;45416;-83
2021/10/01 01:49:35;;;;;;;;;2.00;1.00;;;;;15.07;50.36;101683.38;5039117;28;45356;-85
2021/10/01 01:52:03;;;;;;;;;1.25;1.25;;;;;15.05;49.92;101678.09;5040415;28;45284;-84
2021/10/01 01:54:31;;;;;;;;;2.00;1.00;;;;;15.05;50.37;101680.72;5040919;28;45442;-82
2021/10/01 01:56:59;;;;;;;;;0.00;0.00;;;;;15.06;50.42;101673.75;5039363;28;45503;-83
2021/10/01 01:59:26;;;;;;;;;2.25;1.00;;;;;15.07;50.12;101672.94;5038494;28;45714;-82
2021/10/01 02:01:53;;;;;;;;;1.00;1.00;;;;;15.07;50.25;101671.19;5038508;28;45809;-83
2021/10/01 02:04:21;;;;;;;;;0.25;0.25;;;;;15.08;50.54;101664.28;5022311;28;45393;-83
2021/10/01 02:06:48;;;;;;;;;3.75;1.25;;;;;15.09;50.55;101663.47;5040550;28;45219;-81
2021/10/01 02:09:16;;;;;;;;;1.00;1.00;;;;;15.08;51.11;101656.47;5038466;28;46411;-80
2021/10/01 02:11:44;;;;;;;;;2.25;1.25;;;;;15.08;51.14;101656.47;5038360;28;45815;-81
2021/10/01 02:14:14;;;;;;;;;1.25;1.25;;;;;15.08;51.06;101651.25;5020825;28;45412;-81
2021/10/01 02:16:41;;;;;;;;;1.00;1.00;;;;;15.09;51.38;101653.03;5038777;28;45349;-82
2021/10/01 02:19:08;;;;;;;;;1.50;1.00;;;;;15.08;51.17;101643.41;5037902;28;45494;-80
2021/10/01 02:21:36;;;;;;;;;1.25;1.25;;;;;15.08;51.28;101643.41;5038682;28;45785;-81
2021/10/01 02:24:02;;;;;;;;;1.00;1.00;;;;;15.05;52.13;101645.91;5037749;28;45312;-80
2021/10/01 02:26:39;;;;;;;;;1.00;1.00;;;;;15.04;51.38;101636.28;5022436;28;45318;-81
2021/10/01 02:29:07;;;;;;;;;1.25;1.00;;;;;15.01;52.00;101637.94;5038339;28;46363;-80
2021/10/01 02:31:43;;;;;;;;;2.50;0.75;;;;;14.97;51.88;101627.34;5038081;28;45891;-80
2021/10/01 02:34:10;;;;;;;;;0.25;0.25;;;;;14.95;52.05;101618.59;5037315;28;45459;-80
2021/10/01 02:36:36;;;;;;;;;2.00;1.00;;;;;14.92;52.37;101627.16;5038445;28;45496;-80
2021/10/01 02:39:02;;;;;;;;;1.75;1.00;;;;;14.89;51.82;101616.63;5037795;28;45352;-81
2021/10/01 02:41:28;;;;;;;;;1.00;0.00;;;;;14.83;51.95;101606.84;5037843;28;45346;-80
2021/10/01 02:43:53;;;;;;;;;2.00;2.00;;;;;14.81;52.19;101615.41;5038104;28;45310;-80
2021/10/01 02:46:19;;;;;;;;;2.25;1.50;;;;;14.79;52.26;101619.69;5038446;28;45599;-82
2021/10/01 02:48:45;;;;;;;;;2.00;1.50;;;;;14.79;52.59;101617.09;5037761;28;45909;-81
2021/10/01 02:51:18;;;;;;;;;1.25;1.00;;;;;14.76;52.86;101612.59;5037873;28;45316;-80
2021/10/01 02:54:00;;;;;;;;;0.75;0.75;;;;;14.76;52.37;101612.59;5037797;28;45246;-80
2021/10/01 02:56:31;;;;;;;;;1.00;1.00;;;;;14.75;52.54;101610.81;5053433;28;45365;-80
2021/10/01 02:59:04;;;;;;;;;1.00;1.00;;;;;14.72;53.14;101607.22;5037340;28;45976;-80
2021/10/01 03:01:30;;;;;;;;;1.00;1.00;;;;;14.70;52.86;101597.59;5037649;28;45228;-80
2021/10/01 03:04:04;;;;;;;;;1.00;1.00;;;;;14.68;52.90;101591.47;5037905;28;45386;-81
2021/10/01 03:06:38;;;;;;;;;1.00;1.00;;;;;14.68;53.05;101593.16;5037996;28;45453;-81
2021/10/01 03:09:05;;;;;;;;;1.00;1.00;;;;;14.67;52.85;101596.59;5037533;28;45260;-80
2021/10/01 03:11:32;;;;;;;;;1.50;1.25;;;;;14.65;53.15;101587.78;5037580;28;45853;-81
2021/10/01 03:14:00;;;;;;;;;5.00;1.25;;;;;14.63;53.15;101587.75;5037482;28;45356;-82
2021/10/01 03:16:26;;;;;;;;;0.75;0.75;;;;;14.62;53.07;101583.34;5020019;28;45474;-81
2021/10/01 03:18:54;;;;;;;;;2.50;0.00;;;;;14.62;53.14;101585.09;5037065;28;45897;-80
2021/10/01 03:21:23;;;;;;;;;1.00;1.00;;;;;14.61;53.68;101583.31;5020022;28;45301;-81
2021/10/01 03:23:52;;;;;;;;;0.00;0.00;;;;;14.60;53.31;101577.19;5037704;28;45332;-81
2021/10/01 03:26:19;;;;;;;;;0.00;0.00;;;;;14.60;54.00;101574.56;5038016;28;45182;-81
2021/10/01 03:28:45;;;;;;;;;2.25;1.25;;;;;14.60;53.60;101585.00;5037159;28;45715;-84
2021/10/01 03:31:12;;;;;;;;;2.00;1.75;;;;;14.60;53.86;101573.69;5037353;28;45792;-83
2021/10/01 03:33:38;;;;;;;;;2.25;1.00;;;;;14.60;54.04;101576.31;5037418;28;45526;-83
2021/10/01 03:36:06;;;;;;;;;2.25;2.00;;;;;14.59;53.23;101571.91;5037881;28;45384;-84
2021/10/01 03:38:31;;;;;;;;;1.00;1.00;;;;;14.58;53.78;101564.94;5037817;28;46091;-84
2021/10/01 03:41:00;;;;;;;;;0.25;0.25;;;;;14.60;53.77;101564.16;5039512;28;45243;-82
2021/10/01 03:43:27;;;;;;;;;1.00;1.00;;;;;14.58;54.07;101562.31;5038157;28;45394;-83
2021/10/01 03:45:53;;;;;;;;;2.00;1.00;;;;;14.55;53.89;101558.75;5037113;28;45575;-82
2021/10/01 03:48:20;;;;;;;;;2.00;1.00;;;;;14.53;54.41;101552.59;5039106;28;46106;-82
2021/10/01 03:50:46;;;;;;;;;2.00;0.50;;;;;14.51;54.20;101551.66;5039814;28;45184;-81
2021/10/01 03:53:12;;;;;;;;;1.00;1.00;;;;;14.52;54.05;101553.41;5037733;28;45226;-83
2021/10/01 03:55:38;;;;;;;;;3.25;1.50;;;;;14.50;54.70;101548.97;5037212;28;45625;-82
2021/10/01 03:58:03;;;;;;;;;1.00;1.00;;;;;14.47;54.73;101547.13;5036718;28;45439;-84
2021/10/01 04:00:29;;;;;;;;;2.00;1.00;;;;;14.44;54.74;101544.41;5036569;28;45175;-85
2021/10/01 04:02:55;;;;;;;;;1.00;1.00;;;;;14.42;54.69;101545.19;5036849;28;45355;-84
2021/10/01 04:05:21;;;;;;;;;1.50;1.50;;;;;14.37;55.06;101532.84;5019440;28;45353;-86
2021/10/01 04:07:47;;;;;;;;;1.25;1.25;;;;;14.34;55.38;101531.81;5036562;28;45413;-82
2021/10/01 04:10:14;;;;;;;;;2.75;2.00;;;;;14.32;54.90;101531.78;5036650;28;45333;-82
2021/10/01 04:12:40;;;;;;;;;2.00;1.50;;;;;14.30;55.12;101527.34;5018735;28;45424;-81
2021/10/01 04:15:07;;;;;;;;;2.25;2.00;;;;;14.29;55.60;101533.38;5036811;28;45475;-83
2021/10/01 04:17:32;;;;;;;;;1.00;1.00;;;;;14.26;55.44;101528.91;5036186;28;47188;-81
2021/10/01 04:19:58;;;;;;;;;2.00;2.00;;;;;14.26;55.26;101533.25;5039041;28;45317;-84
2021/10/01 04:22:24;;;;;;;;;4.00;3.00;;;;;14.27;55.63;101530.69;5036762;28;45223;-83
2021/10/01 04:24:50;;;;;;;;;4.00;3.00;;;;;14.28;55.33;101534.19;5037066;28;45261;-81
2021/10/01 04:27:16;;;;;;;;;3.00;1.75;;;;;14.29;55.75;101536.84;5036391;28;45348;-82
2021/10/01 04:29:42;;;;;;;;;1.00;1.00;;;;;14.28;55.38;101536.81;5036619;28;45287;-83
2021/10/01 04:32:09;;;;;;;;;2.75;2.25;;;;;14.27;55.89;101535.88;5036820;28;45470;-83
2021/10/01 04:34:46;;;;;;;;;2.50;2.00;;;;;14.27;55.78;101532.41;5018891;28;45499;-81
2021/10/01 04:37:11;;;;;;;;;2.25;1.25;;;;;14.26;55.90;101535.84;5036506;28;45406;-82
2021/10/01 04:39:37;;;;;;;;;1.00;1.00;;;;;14.24;55.47;101525.38;5035846;28;45306;-83
2021/10/01 04:42:03;;;;;;;;;5.00;3.00;;;;;14.20;55.88;101520.84;5035949;28;45498;-83
2021/10/01 04:44:28;;;;;;;;;2.00;2.00;;;;;14.14;56.05;101518.88;5035514;28;45224;-82
2021/10/01 04:46:55;;;;;;;;;1.00;1.00;;;;;14.08;56.11;101526.44;5018521;28;46289;-81
2021/10/01 04:49:21;;;;;;;;;3.00;1.75;;;;;14.04;56.26;101519.31;5019702;28;45767;-83
2021/10/01 04:51:47;;;;;;;;;3.25;2.25;;;;;14.04;56.24;101527.13;5034790;28;45394;-84
2021/10/01 04:54:12;;;;;;;;;1.50;1.50;;;;;14.01;56.89;101527.00;5036376;28;45533;-83
2021/10/01 04:56:38;;;;;;;;;1.75;1.75;;;;;13.99;56.73;101526.94;5035715;28;45494;-83
2021/10/01 04:59:04;;;;;;;;;3.00;2.00;;;;;13.98;56.48;101524.28;5038698;28;45378;-82
2021/10/01 05:01:29;;;;;;;;;4.25;2.00;;;;;13.98;57.02;101525.16;5037011;28;45355;-83
2021/10/01 05:03:55;;;;;;;;;2.25;1.75;;;;;13.94;56.45;101528.44;5039217;28;45447;-83
2021/10/01 05:06:24;;;;;;;;;3.00;2.50;;;;;13.92;56.56;101528.38;5039617;28;46670;-82
2021/10/01 05:08:49;;;;;;;;;2.00;2.00;;;;;13.93;57.07;101530.19;5021282;28;45656;-82
2021/10/01 05:11:15;;;;;;;;;2.00;2.00;;;;;13.95;56.81;101522.41;5039155;28;45319;-84
2021/10/01 05:13:41;;;;;;;;;1.75;1.75;;;;;13.92;56.83;101519.72;5037522;28;45450;-82
2021/10/01 05:16:07;;;;;;;;;1.50;0.00;;;;;13.92;57.34;101522.31;5036538;28;45478;-80
2021/10/01 05:18:33;;;;;;;;;3.00;2.00;;;;;13.91;57.15;101520.53;5017889;28;45818;-81
2021/10/01 05:21:02;;;;;;;;;5.50;2.75;;;;;13.87;57.22;101513.41;5023473;28;45290;-83
2021/10/01 05:23:30;;;;;;;;;2.00;2.00;;;;;13.84;57.42;101519.38;5039062;28;45305;-81
2021/10/01 05:25:56;;;;;;;;;4.00;4.00;;;;;13.86;57.07;101512.53;5038275;28;45591;-80
2021/10/01 05:28:22;;;;;;;;;2.00;2.00;;;;;13.89;57.66;101514.38;5038347;28;45914;-80
2021/10/01 05:30:47;;;;;;;;;3.00;3.00;;;;;13.92;57.21;101514.50;5037553;28;45690;-79
2021/10/01 05:33:14;;;;;;;;;1.00;1.00;;;;;13.90;57.44;101511.81;5038889;28;45307;-83
2021/10/01 05:35:44;;;;;;;;;3.00;1.00;;;;;13.89;57.44;101509.16;5037770;28;45434;-81
2021/10/01 05:38:12;;;;;;;;;1.00;1.00;;;;;13.88;57.49;101508.25;5029661;28;45736;-80
2021/10/01 05:40:39;;;;;;;;;9.75;7.50;;;;;13.89;57.54;101512.63;5020359;28;45361;-80
2021/10/01 05:43:05;;;;;;;;;3.25;2.00;;;;;13.89;57.47;101509.16;5041814;28;45386;-83
2021/10/01 05:45:31;;;;;;;;;4.25;3.75;;;;;13.88;57.62;101508.25;5054134;28;46515;-80
2021/10/01 05:48:00;;;;;;;;;1.50;1.50;;;;;13.88;57.45;101504.78;5058545;28;46020;-79
2021/10/01 05:50:29;;;;;;;;;1.00;1.00;;;;;13.84;57.58;101495.94;5056316;28;45524;-78
2021/10/01 05:53:06;;;;;;;;;2.00;1.00;;;;;13.82;57.42;101491.50;5036092;28;45729;-78
2021/10/01 05:55:32;;;;;;;;;5.00;2.00;;;;;13.82;57.88;101484.56;5047309;28;45389;-80
2021/10/01 05:57:57;;;;;;;;;2.00;2.00;;;;;13.81;57.76;101490.59;5037617;28;45330;-80
2021/10/01 06:00:23;;;;;;;;;4.25;2.00;;;;;13.77;57.96;101486.97;5041367;28;45336;-83
2021/10/01 06:02:50;;;;;;;;;2.75;2.00;;;;;13.80;57.42;101488.81;5038254;28;45240;-79
2021/10/01 06:05:16;;;;;;;;;2.75;2.75;;;;;13.77;57.84;101479.19;5043904;28;46346;-80
2021/10/01 06:07:42;;;;;;;;;2.00;2.00;;;;;13.76;57.97;101485.19;5046221;28;45412;-80
2021/10/01 06:10:10;;;;;;;;;2.75;1.00;;;;;13.75;57.78;101479.94;5021385;28;45454;-85
2021/10/01 06:12:36;;;;;;;;;6.25;3.00;;;;;13.71;58.15;101476.31;5036929;28;45599;-81
2021/10/01 06:15:04;;;;;;;;;2.00;2.00;;;;;13.69;58.24;101484.88;5036955;28;45954;-81
2021/10/01 06:17:30;;;;;;;;;2.00;2.00;;;;;13.69;58.32;101485.78;5037697;28;45694;-80
2021/10/01 06:19:55;;;;;;;;;1.00;1.00;;;;;13.64;58.36;101484.69;5023835;28;45335;-81
2021/10/01 06:22:28;;;;;;;;;2.00;2.00;;;;;13.69;58.16;101488.38;5041508;28;45535;-81
2021/10/01 06:24:53;;;;;;;;;2.00;2.00;;;;;13.73;58.40;101487.66;5057052;28;46845;-82
2021/10/01 06:27:23;;;;;;;;;2.75;2.75;;;;;13.75;58.16;101486.03;5058435;28;45324;-80
2021/10/01 06:29:50;;;;;;;;;4.50;3.50;;;;;13.83;57.95;101490.66;5064742;28;45388;-80
2021/10/01 06:32:16;;;;;;;;;3.00;3.00;;;;;13.86;58.19;101488.19;5056912;28;45462;-78
2021/10/01 06:34:44;;;;;;;;;2.75;2.75;;;;;13.91;58.01;101487.56;5039589;28;45401;-88
2021/10/01 06:37:12;;;;;;;;;8.50;7.75;;;;;13.93;57.86;101485.91;5038069;28;45514;-84
2021/10/01 06:39:38;;;;;;;;;4.50;3.00;;;;;13.98;57.70;101474.81;5042543;28;45259;-87
2021/10/01 06:42:07;;;;;;;;;4.50;2.00;;;;;14.02;57.69;101476.69;5058164;28;45445;-86
2021/10/01 06:44:34;;;;;;;;;2.00;2.00;;;;;14.07;57.92;101480.41;5041086;28;45573;-85
2021/10/01 06:47:06;;;;;;;;;3.50;2.00;;;;;14.11;57.95;101471.00;5035277;28;45738;-77
2021/10/01 06:49:58;;;;;;;;;3.50;2.25;;;;;14.19;58.20;101469.59;5038744;28;45361;-85
2021/10/01 06:53:09;;;;;;;;;3.25;1.50;;;;;14.29;57.91;101474.34;5039506;28;45495;-82
2021/10/01 07:36:48;;;;;;;;;1.00;1.00;;;;;15.13;55.67;101482.75;5039914;28;45371;-88
2021/10/01 08:20:01;;;;;;;;;3.50;2.00;;;;;15.54;55.54;101432.91;5065475;28;45291;-82
2021/10/01 08:22:26;;;;;;;;;3.00;0.25;;;;;15.59;55.29;101439.19;5061943;28;45870;-92
2021/10/01 08:24:52;;;;;;;;;1.00;1.00;;;;;15.65;55.69;101431.53;5042668;28;46522;-90
2021/10/01 08:27:18;;;;;;;;;3.00;1.75;;;;;15.70;55.61;101419.56;5044713;28;45402;-88
2021/10/01 08:29:44;;;;;;;;;2.75;1.00;;;;;15.77;55.57;101425.84;5046285;28;45348;-87
2021/10/01 08:32:09;;;;;;;;;2.00;1.25;;;;;15.85;55.52;101424.44;5043758;28;45611;-84
2021/10/01 08:34:38;;;;;;;;;2.25;1.75;;;;;15.91;55.17;101428.97;5041297;28;45437;-79
2021/10/01 08:37:05;;;;;;;;;1.25;1.25;;;;;15.93;54.99;101430.78;5041049;28;45211;-84
2021/10/01 08:39:30;;;;;;;;;1.75;1.75;;;;;15.94;55.10;101424.72;5041554;28;45533;-83
2021/10/01 08:41:57;;;;;;;;;2.00;2.00;;;;;15.99;54.96;101417.03;5042912;28;45364;-79
2021/10/01 08:44:27;;;;;;;;;2.50;2.50;;;;;15.99;55.47;101421.34;5041964;28;45626;-77
2021/10/01 08:46:54;;;;;;;;;1.75;1.75;;;;;16.00;55.33;101420.50;5042206;28;45224;-80
2021/10/01 08:49:21;;;;;;;;;1.25;1.25;;;;;16.00;55.20;101412.69;5042050;28;45149;-78
2021/10/01 08:51:50;;;;;;;;;2.00;2.00;;;;;16.05;55.43;101411.13;5050985;28;46543;-79
2021/10/01 08:54:18;;;;;;;;;3.00;2.00;;;;;16.11;55.16;101410.44;5042849;28;45384;-85
2021/10/01 08:56:53;;;;;;;;;2.50;2.00;;;;;16.16;55.09;101398.38;5041718;28;45408;-78
2021/10/01 08:59:20;;;;;;;;;1.00;1.00;;;;;16.18;55.41;101407.16;5032513;28;45453;-80
2021/10/01 09:01:46;;;;;;;;;3.00;1.00;;;;;16.20;55.26;101408.97;5046115;28;45482;-78
2021/10/01 09:04:16;;;;;;;;;4.25;1.00;;;;;16.22;55.19;101404.69;5060069;28;45486;-79
2021/10/01 09:06:42;;;;;;;;;2.50;1.00;;;;;16.27;55.55;101402.22;5062086;28;45332;-79
2021/10/01 09:09:10;;;;;;;;;2.50;1.50;;;;;16.34;55.43;101411.13;5043350;28;45570;-79
2021/10/01 09:11:47;;;;;;;;;4.50;2.00;;;;;16.38;55.32;101402.56;5053321;28;45991;-78
2021/10/01 09:14:18;;;;;;;;;1.00;1.00;;;;;16.44;55.09;101394.91;5047617;28;45852;-78
2021/10/01 09:16:44;;;;;;;;;3.75;2.00;;;;;16.45;55.53;101399.28;5041917;28;45303;-78
2021/10/01 09:19:19;;;;;;;;;1.00;1.00;;;;;16.42;55.27;101387.84;5055223;28;45600;-78
2021/10/01 09:22:05;;;;;;;;;;;;;;;;;;;;;
2021/10/01 09:24:31;;;;;;;;;1.00;1.00;;;;;16.47;55.25;101392.38;5038921;28;73131;-78
2021/10/01 09:26:58;;;;;;;;;0.50;0.50;;;;;16.52;55.35;101385.53;5025536;28;45454;-78
2021/10/01 09:29:32;;;;;;;;;1.00;1.00;;;;;16.54;55.15;101390.84;5040042;28;45365;-78
2021/10/01 09:32:00;;;;;;;;;1.00;1.00;;;;;16.56;55.59;101397.00;5041020;28;46240;-81
2021/10/01 09:34:26;;;;;;;;;3.00;1.00;;;;;16.59;54.95;101389.22;5022658;28;45731;-83
2021/10/01 09:36:59;;;;;;;;;3.00;1.00;;;;;16.60;55.21;101393.63;5041781;28;45463;-82
2021/10/01 09:39:30;;;;;;;;;3.00;0.75;;;;;16.62;55.32;101384.09;5023326;28;45316;-89
2021/10/01 09:41:59;;;;;;;;;1.50;1.50;;;;;16.63;55.70;101385.88;4993788;28;1360412;-82
2021/10/01 09:44:29;;;;;;;;;1.50;0.50;;;;;16.67;55.29;101394.69;5041194;28;45303;-88
2021/10/01 09:46:56;;;;;;;;;2.25;1.00;;;;;16.69;55.42;101400.84;5042267;28;45267;-79
2021/10/01 09:49:33;;;;;;;;;0.75;0.50;;;;;16.74;55.17;101403.59;5043888;28;46041;-81
2021/10/01 09:52:00;;;;;;;;;2.00;1.50;;;;;16.74;55.30;101398.38;5047252;28;45449;-84
2021/10/01 09:54:28;;;;;;;;;2.50;1.50;;;;;16.75;55.39;101394.91;5041867;28;45338;-77
2021/10/01 09:57:03;;;;;;;;;4.00;2.00;;;;;16.81;55.32;101397.69;5024039;28;45462;-89
2021/10/01 09:59:30;;;;;;;;;2.25;1.50;;;;;16.85;55.33;101403.06;5043565;28;45339;-90
2021/10/01 10:02:10;;;;;;;;;2.00;2.00;;;;;16.90;55.47;101389.22;5040942;28;46398;-92
2021/10/01 10:04:42;;;;;;;;;2.25;2.25;;;;;16.96;55.13;101392.03;5040954;28;45666;-89
2021/10/01 10:07:13;;;;;;;;;1.50;1.50;;;;;17.02;55.33;101397.47;5028555;28;45337;-86
2021/10/01 10:09:45;;;;;;;;;3.00;1.25;;;;;17.07;55.28;101388.00;5042448;28;45324;-87
2021/10/01 10:12:15;;;;;;;;;2.00;2.00;;;;;17.08;55.08;101394.13;5042435;28;45389;-84
2021/10/01 10:14:50;;;;;;;;;3.25;3.25;;;;;17.11;55.53;101395.09;5045445;28;45636;-84
2021/10/01 10:17:22;;;;;;;;;1.50;1.00;;;;;17.18;55.32;101393.53;5044296;28;45172;-86
2021/10/01 10:19:50;;;;;;;;;1.75;1.00;;;;;17.23;55.28;101386.66;5026190;28;45250;-88
2021/10/01 10:22:16;;;;;;;;;3.25;3.25;;;;;17.29;55.42;101384.25;5044962;28;46160;-92
2021/10/01 10:24:43;;;;;;;;;2.50;2.00;;;;;17.35;55.15;101377.38;5048343;28;45226;-91
2021/10/01 10:27:09;;;;;;;;;3.00;1.75;;;;;17.39;55.28;101376.63;5044883;28;45189;-86
2021/10/01 10:29:36;;;;;;;;;0.00;0.00;;;;;17.43;55.13;101368.00;5024987;28;45617;-88
2021/10/01 10:32:07;;;;;;;;;1.50;1.50;;;;;17.47;55.23;101372.47;5041212;28;45320;-85
2021/10/01 10:34:32;;;;;;;;;2.50;1.25;;;;;17.49;55.11;101376.00;5023684;28;45503;-84
2021/10/01 10:37:10;;;;;;;;;1.25;1.25;;;;;17.48;55.23;101372.53;5042823;28;45376;-86
2021/10/01 10:39:51;;;;;;;;;2.00;2.00;;;;;17.48;55.44;101364.66;5044143;28;45459;-87
2021/10/01 10:42:30;;;;;;;;;2.25;1.25;;;;;17.47;55.14;101354.13;5042930;28;48168;-92
2021/10/01 10:45:01;;;;;;;;;3.50;2.75;;;;;17.46;55.88;101350.66;5043637;28;45660;-85
2021/10/01 10:47:46;;;;;;;;;3.00;1.50;;;;;17.48;55.32;101340.19;5042627;28;45435;-89
2021/10/01 10:50:21;;;;;;;;;1.00;1.00;;;;;17.46;55.46;101332.31;5038636;28;45558;-85
2021/10/01 10:53:15;;;;;;;;;2.00;1.00;;;;;17.47;55.55;101335.81;5021907;28;46348;-83
2021/10/01 10:55:40;;;;;;;;;0.25;0.25;;;;;17.48;55.19;101340.19;5045577;28;45251;-80
2021/10/01 10:58:27;;;;;;;;;2.00;2.00;;;;;17.47;55.98;101341.94;5056878;28;45589;-84
2021/10/01 11:01:05;;;;;;;;;0.50;0.50;;;;;17.57;55.54;101340.41;5046864;28;45485;-83
2021/10/01 11:03:34;;;;;;;;;1.00;0.00;;;;;17.64;55.30;101328.38;5054638;28;47745;-82
2021/10/01 11:06:09;;;;;;;;;3.00;2.00;;;;;17.72;55.45;101331.19;5053304;28;45256;-86
2021/10/01 11:08:44;;;;;;;;;1.75;1.75;;;;;17.81;55.59;101330.53;5047957;28;45386;-84
2021/10/01 11:11:28;;;;;;;;;0.75;0.75;;;;;17.93;55.46;101329.06;5031382;28;45611;-84
2021/10/01 11:14:19;;;;;;;;;2.50;1.00;;;;;18.04;55.13;101328.44;5047060;28;46353;-82
2021/10/01 11:16:54;;;;;;;;;0.75;0.75;;;;;18.05;55.03;101331.09;5025316;28;45503;-82
2021/10/01 11:19:51;;;;;;;;;1.25;1.25;;;;;18.03;55.30;101309.19;5040535;28;45346;-80
2021/10/01 11:22:33;;;;;;;;;0.00;0.00;;;;;18.06;55.81;101314.53;5033938;28;45489;-81
2021/10/01 11:25:00;;;;;;;;;0.50;0.50;;;;;18.13;55.54;101317.28;5039090;28;45526;-79
2021/10/01 11:27:26;;;;;;;;;2.00;0.75;;;;;18.14;55.26;101313.81;5035891;28;45800;-78
2021/10/01 11:29:52;;;;;;;;;2.25;1.25;;;;;18.16;55.31;101307.75;5034259;28;45403;-79
2021/10/01 11:32:23;;;;;;;;;1.25;1.00;;;;;18.21;54.99;101321.81;5036566;28;45344;-80
2021/10/01 11:34:55;;;;;;;;;0.75;0.75;;;;;18.23;54.88;101316.63;5036035;28;45555;-79
2021/10/01 11:37:34;;;;;;;;;0.75;0.75;;;;;18.19;55.13;101299.97;5035838;28;45771;-79
2021/10/01 11:40:24;;;;;;;;;0.00;0.00;;;;;18.22;55.13;101296.53;5035304;28;45412;-79
2021/10/01 11:42:53;;;;;;;;;1.75;1.75;;;;;18.24;55.47;101306.19;5035486;28;45311;-78
2021/10/01 11:45:36;;;;;;;;;1.00;1.00;;;;;18.30;55.25;101304.56;5036032;28;45837;-78
2021/10/01 11:48:07;;;;;;;;;0.75;0.75;;;;;18.39;55.44;101296.88;5035750;28;45790;-79
2021/10/01 11:50:40;;;;;;;;;2.00;1.25;;;;;18.47;54.86;101297.00;5035531;28;45214;-78
2021/10/01 11:53:19;;;;;;;;;1.00;1.00;;;;;18.56;55.17;101290.22;5035751;28;45435;-78
2021/10/01 11:55:56;;;;;;;;;3.25;2.00;;;;;18.68;55.17;101272.94;5032897;28;45936;-82
2021/10/01 11:58:23;;;;;;;;;3.75;1.25;;;;;18.75;54.85;101280.06;5035545;28;45862;-82
2021/10/01 12:00:50;;;;;;;;;0.00;0.00;;;;;18.98;54.37;101269.13;5035299;28;45379;-80
2021/10/01 12:03:17;;;;;;;;;1.25;1.25;;;;;19.07;53.69;101265.78;5036593;28;45351;-80
2021/10/01 12:05:49;;;;;;;;;1.00;1.00;;;;;19.18;53.74;101278.22;5020516;28;46792;-80
2021/10/01 12:08:16;;;;;;;;;2.25;1.25;;;;;19.25;53.71;101255.59;5031503;28;45842;-81
2021/10/01 12:10:56;;;;;;;;;1.00;1.00;;;;;19.29;53.18;101251.28;5038513;28;45466;-79
2021/10/01 12:13:24;;;;;;;;;0.50;0.50;;;;;19.29;53.27;101260.03;5039154;28;45356;-84
2021/10/01 12:15:53;;;;;;;;;2.00;1.00;;;;;19.18;53.11;101249.34;5037136;28;45368;-83
2021/10/01 12:18:41;;;;;;;;;1.25;0.00;;;;;19.15;53.32;101265.06;5042732;28;45750;-87
2021/10/01 12:21:10;;;;;;;;;2.00;2.00;;;;;19.08;53.63;101254.44;5046690;28;45505;-80
2021/10/01 12:23:46;;;;;;;;;0.75;0.75;;;;;19.01;54.50;101263.94;5047284;28;45392;-89
2021/10/01 12:26:25;;;;;;;;;1.25;1.25;;;;;18.99;54.36;101257.78;5045953;28;45082;-88
2021/10/01 12:29:00;;;;;;;;;0.25;0.00;;;;;18.93;54.56;101237.56;5043371;28;45182;-84
2021/10/01 12:31:29;;;;;;;;;1.00;0.25;;;;;18.92;54.46;101243.63;5042321;28;45302;-94
2021/10/01 12:33:57;;;;;;;;;1.00;1.00;;;;;18.89;54.68;101243.59;5041195;28;45504;-92
2021/10/01 12:36:25;;;;;;;;;3.00;1.75;;;;;18.94;54.79;101235.84;5044203;28;45909;-84
2021/10/01 12:38:59;;;;;;;;;1.00;1.00;;;;;18.99;54.44;101228.91;5028876;28;45249;-80
2021/10/01 12:41:27;;;;;;;;;1.75;1.00;;;;;19.05;54.24;101226.41;5045113;28;45611;-79
2021/10/01 12:43:59;;;;;;;;;0.75;0.75;;;;;19.11;54.63;101231.75;5043361;28;45269;-81
2021/10/01 12:46:47;;;;;;;;;1.00;1.00;;;;;19.16;53.90;101227.47;5044173;28;46908;-86
2021/10/01 12:49:28;;;;;;;;;0.50;0.00;;;;;19.19;54.34;101229.25;5029353;28;45620;-82
2021/10/01 12:52:04;;;;;;;;;1.00;1.00;;;;;19.18;54.35;101222.25;5046474;28;45391;-84
2021/10/01 12:54:30;;;;;;;;;0.75;0.75;;;;;19.16;53.99;101219.59;5047298;28;45313;-80
2021/10/01 12:57:14;;;;;;;;;2.00;0.25;;;;;19.12;54.39;101216.88;5049930;28;46661;-87
2021/10/01 12:59:52;;;;;;;;;0.50;0.25;;;;;19.09;54.06;101214.22;5044679;28;45586;-91
2021/10/01 13:02:24;;;;;;;;;2.75;0.50;;;;;19.05;54.23;101208.03;5049460;28;45523;-90
2021/10/01 13:04:57;;;;;;;;;0.75;0.75;;;;;19.02;54.49;101215.88;5025253;28;45257;-78